Time;durP1;ratioP1;P1;durP2;ratioP2;P2;SDS_P1;SDS_P2;PMS_P1;PMS_P2;Temp;Humidity;BMP_temperature;BMP_pressure;BME280_temperature;BME280_humidity;BME280_pressure;Samples;Min_cycle;Max_cycle;Signal;HPM_P1;HPM_P2
2022/02/18 00:01:30;;;;;;;;;;;21.80;33.60;;;;;;477382;249;1326;-39
2022/02/18 00:03:31;;;;;;;;;;;21.80;33.70;;;;;;480161;246;2160;-39
2022/02/18 00:05:32;;;;;;;;;;;21.80;33.70;;;;;;484416;246;1319;-39
2022/02/18 00:07:34;;;;;;;;;;;21.80;33.70;;;;;;483953;246;1166;-39
2022/02/18 00:09:35;;;;;;;;;;;21.80;33.70;;;;;;484449;246;1194;-39
2022/02/18 00:11:36;;;;;;;;;;;21.80;33.70;;;;;;483940;246;1271;-39
2022/02/18 00:13:38;;;;;;;;;;;21.80;33.60;;;;;;484007;246;1178;-39
2022/02/18 00:15:39;;;;;;;;;;;21.80;33.70;;;;;;484440;246;1108;-39
2022/02/18 00:17:40;;;;;;;;;;;21.80;33.60;;;;;;483919;246;1291;-39
2022/02/18 00:19:42;;;;;;;;;;;21.80;33.70;;;;;;484482;246;1059;-39
2022/02/18 00:21:43;;;;;;;;;;;21.70;33.70;;;;;;484401;246;1202;-39
2022/02/18 00:23:44;;;;;;;;;;;21.70;33.70;;;;;;484031;246;2188;-39
2022/02/18 00:25:46;;;;;;;;;;;21.80;33.80;;;;;;484451;246;1396;-39
2022/02/18 00:27:47;;;;;;;;;;;21.80;33.70;;;;;;483965;246;1086;-39
2022/02/18 00:29:48;;;;;;;;;;;21.80;33.70;;;;;;484297;246;1053;-39
2022/02/18 00:31:50;;;;;;;;;;;21.80;33.80;;;;;;484265;246;1128;-39
2022/02/18 00:33:51;;;;;;;;;;;21.80;33.70;;;;;;484062;246;1221;-39
2022/02/18 00:35:52;;;;;;;;;;;21.80;33.70;;;;;;484445;246;1305;-39
2022/02/18 00:37:54;;;;;;;;;;;21.80;33.70;;;;;;484421;246;1240;-39
2022/02/18 00:39:55;;;;;;;;;;;21.80;33.60;;;;;;484386;246;1046;-39
2022/02/18 00:41:56;;;;;;;;;;;21.80;33.70;;;;;;484432;246;1330;-39
2022/02/18 00:43:58;;;;;;;;;;;21.80;33.70;;;;;;484227;246;2297;-39
2022/02/18 00:45:59;;;;;;;;;;;21.80;33.70;;;;;;484051;246;1027;-39
2022/02/18 00:48:00;;;;;;;;;;;21.80;33.70;;;;;;484384;246;1333;-39
2022/02/18 00:50:02;;;;;;;;;;;21.80;33.60;;;;;;484036;246;1064;-39
2022/02/18 00:52:03;;;;;;;;;;;21.80;33.70;;;;;;483953;246;1314;-39
2022/02/18 00:54:04;;;;;;;;;;;21.80;33.70;;;;;;483972;246;1068;-39
2022/02/18 00:56:06;;;;;;;;;;;21.80;33.70;;;;;;484275;246;1265;-39
2022/02/18 00:58:07;;;;;;;;;;;21.80;33.70;;;;;;484111;246;1106;-39
2022/02/18 01:00:09;;;;;;;;;;;21.90;33.70;;;;;;484027;246;1047;-39
2022/02/18 01:02:10;;;;;;;;;;;21.80;33.70;;;;;;484138;246;1190;-39
2022/02/18 01:04:11;;;;;;;;;;;21.80;33.70;;;;;;484164;246;2156;-39
2022/02/18 01:06:13;;;;;;;;;;;21.80;33.70;;;;;;484373;246;1241;-39
2022/02/18 01:08:14;;;;;;;;;;;21.80;33.60;;;;;;484195;246;1116;-39
2022/02/18 01:10:15;;;;;;;;;;;21.80;33.70;;;;;;484264;246;1190;-39
2022/02/18 01:12:17;;;;;;;;;;;21.80;33.70;;;;;;484417;246;1201;-39
2022/02/18 01:14:18;;;;;;;;;;;21.80;33.70;;;;;;484469;246;1149;-39
2022/02/18 01:16:19;;;;;;;;;;;21.80;33.70;;;;;;484012;246;1120;-39
2022/02/18 01:18:21;;;;;;;;;;;21.80;33.70;;;;;;484363;246;1112;-39
2022/02/18 01:20:22;;;;;;;;;;;21.80;33.80;;;;;;483984;246;1067;-39
2022/02/18 01:22:24;;;;;;;;;;;21.80;33.70;;;;;;483954;246;1043;-39
2022/02/18 01:24:25;;;;;;;;;;;21.80;33.70;;;;;;484235;246;2116;-39
2022/02/18 01:26:26;;;;;;;;;;;21.80;33.80;;;;;;484378;246;1046;-39
2022/02/18 01:28:28;;;;;;;;;;;21.80;33.80;;;;;;484454;246;1060;-39
2022/02/18 01:30:29;;;;;;;;;;;21.80;33.80;;;;;;484443;246;1270;-39
2022/02/18 01:32:30;;;;;;;;;;;21.80;33.70;;;;;;484386;246;1063;-39
2022/02/18 01:34:32;;;;;;;;;;;21.80;33.80;;;;;;484232;246;1493;-39
2022/02/18 01:36:33;;;;;;;;;;;21.80;33.80;;;;;;484208;246;1068;-39
2022/02/18 01:38:34;;;;;;;;;;;21.80;33.80;;;;;;483991;246;1098;-39
2022/02/18 01:40:36;;;;;;;;;;;21.80;33.80;;;;;;484434;246;1059;-39
2022/02/18 01:42:37;;;;;;;;;;;21.80;33.80;;;;;;483953;246;1082;-39
2022/02/18 01:44:38;;;;;;;;;;;21.80;33.80;;;;;;484034;246;2208;-39
2022/02/18 01:46:40;;;;;;;;;;;21.80;33.80;;;;;;483978;246;1181;-39
2022/02/18 01:48:41;;;;;;;;;;;21.80;33.80;;;;;;484438;246;1215;-39
2022/02/18 01:50:42;;;;;;;;;;;21.80;33.70;;;;;;484461;246;1041;-39
2022/02/18 01:52:44;;;;;;;;;;;21.80;33.70;;;;;;484432;246;1572;-39
2022/02/18 01:54:46;;;;;;;;;;;21.80;33.80;;;;;;484003;246;1132;-39
2022/02/18 01:56:47;;;;;;;;;;;21.80;33.80;;;;;;484381;246;1158;-39
2022/02/18 01:58:48;;;;;;;;;;;21.80;33.80;;;;;;484041;246;1255;-39
2022/02/18 02:00:50;;;;;;;;;;;21.80;33.80;;;;;;484476;246;1095;-39
2022/02/18 02:02:51;;;;;;;;;;;21.80;33.80;;;;;;484443;246;1109;-39
2022/02/18 02:04:52;;;;;;;;;;;21.80;33.80;;;;;;484175;246;2136;-39
2022/02/18 02:06:54;;;;;;;;;;;21.80;33.80;;;;;;484278;246;1318;-39
2022/02/18 02:08:55;;;;;;;;;;;21.80;33.80;;;;;;484008;246;1062;-39
2022/02/18 02:10:56;;;;;;;;;;;21.80;33.80;;;;;;484382;246;1201;-39
2022/02/18 02:12:58;;;;;;;;;;;21.80;33.80;;;;;;483970;246;1316;-39
2022/02/18 02:14:59;;;;;;;;;;;21.80;33.80;;;;;;484054;246;1094;-39
2022/02/18 02:17:00;;;;;;;;;;;21.80;33.90;;;;;;484412;246;1164;-39
2022/02/18 02:19:02;;;;;;;;;;;21.80;33.80;;;;;;484450;246;1228;-39
2022/02/18 02:21:04;;;;;;;;;;;21.80;33.90;;;;;;484391;246;1437;-39
2022/02/18 02:23:05;;;;;;;;;;;21.80;33.90;;;;;;484412;246;1258;-39
2022/02/18 02:25:06;;;;;;;;;;;21.70;33.90;;;;;;484408;246;2200;-39
2022/02/18 02:27:08;;;;;;;;;;;21.80;33.90;;;;;;483882;246;1237;-39
2022/02/18 02:29:09;;;;;;;;;;;21.80;33.90;;;;;;484002;246;1249;-39
2022/02/18 02:31:10;;;;;;;;;;;21.80;33.90;;;;;;483979;246;1122;-39
2022/02/18 02:33:12;;;;;;;;;;;21.80;33.80;;;;;;484124;246;1163;-39
2022/02/18 02:35:13;;;;;;;;;;;21.80;33.80;;;;;;484272;246;1368;-39
2022/02/18 02:37:14;;;;;;;;;;;21.80;33.80;;;;;;484375;246;1254;-39
2022/02/18 02:39:15;;;;;;;;;;;21.80;33.80;;;;;;484047;246;1271;-39
2022/02/18 02:41:17;;;;;;;;;;;21.80;33.80;;;;;;483985;246;1389;-39
2022/02/18 02:43:18;;;;;;;;;;;21.80;33.80;;;;;;484509;246;1082;-39
2022/02/18 02:45:19;;;;;;;;;;;21.80;33.90;;;;;;484032;246;2208;-39
2022/02/18 02:47:21;;;;;;;;;;;21.80;33.90;;;;;;483948;246;1342;-39
2022/02/18 02:49:22;;;;;;;;;;;21.70;33.80;;;;;;484037;246;1101;-39
2022/02/18 02:51:23;;;;;;;;;;;21.70;33.90;;;;;;484443;246;1212;-39
2022/02/18 02:53:25;;;;;;;;;;;21.70;34.00;;;;;;483965;246;1061;-39
2022/02/18 02:55:26;;;;;;;;;;;21.70;33.90;;;;;;484480;246;1195;-39
2022/02/18 02:57:27;;;;;;;;;;;21.80;33.90;;;;;;484198;246;1082;-39
2022/02/18 02:59:29;;;;;;;;;;;21.80;33.90;;;;;;484476;246;1077;-39
2022/02/18 03:01:30;;;;;;;;;;;21.80;33.90;;;;;;483072;247;1294;-39
2022/02/18 03:03:32;;;;;;;;;;;21.80;33.80;;;;;;483520;246;1047;-39
2022/02/18 03:05:33;;;;;;;;;;;21.80;33.90;;;;;;483375;246;2125;-39
2022/02/18 03:07:34;;;;;;;;;;;21.80;33.90;;;;;;483127;246;1469;-39
2022/02/18 03:09:36;;;;;;;;;;;21.80;33.90;;;;;;484015;246;1193;-39
2022/02/18 03:11:37;;;;;;;;;;;21.80;33.90;;;;;;484317;246;1295;-39
2022/02/18 03:13:39;;;;;;;;;;;21.80;33.90;;;;;;484487;246;1243;-39
2022/02/18 03:15:40;;;;;;;;;;;21.80;33.80;;;;;;484943;245;1324;-39
2022/02/18 03:17:41;;;;;;;;;;;21.70;33.90;;;;;;484561;245;1212;-39
2022/02/18 03:19:43;;;;;;;;;;;21.80;33.90;;;;;;484523;245;1060;-39
2022/02/18 03:21:44;;;;;;;;;;;21.80;33.90;;;;;;484016;246;1405;-39
2022/02/18 03:23:46;;;;;;;;;;;21.80;33.90;;;;;;484222;246;1082;-39
2022/02/18 03:25:47;;;;;;;;;;;21.80;33.90;;;;;;484457;246;2105;-39
2022/02/18 03:27:48;;;;;;;;;;;21.80;33.90;;;;;;484201;246;1022;-39
2022/02/18 03:29:50;;;;;;;;;;;21.80;33.90;;;;;;484503;246;1166;-39
2022/02/18 03:31:51;;;;;;;;;;;21.80;33.90;;;;;;484415;246;1329;-39
2022/02/18 03:33:52;;;;;;;;;;;21.80;33.90;;;;;;484080;246;1081;-39
2022/02/18 03:35:54;;;;;;;;;;;21.80;33.90;;;;;;484045;246;1203;-39
2022/02/18 03:37:55;;;;;;;;;;;21.80;33.80;;;;;;484425;246;2012;-39
2022/02/18 03:39:56;;;;;;;;;;;21.80;33.80;;;;;;484520;246;1155;-39
2022/02/18 03:41:58;;;;;;;;;;;21.80;33.80;;;;;;484241;246;1114;-39
2022/02/18 03:43:59;;;;;;;;;;;21.80;33.80;;;;;;484231;246;1113;-39
2022/02/18 03:46:00;;;;;;;;;;;21.80;33.80;;;;;;483972;246;2188;-39
2022/02/18 03:48:02;;;;;;;;;;;21.80;33.90;;;;;;484009;246;1170;-39
2022/02/18 03:50:03;;;;;;;;;;;21.80;33.80;;;;;;484049;246;1324;-39
2022/02/18 03:52:06;;;;;;;;;;;21.80;33.80;;;;;;483959;246;1218;-39
2022/02/18 03:54:05;;;;;;;;;;;21.80;33.90;;;;;;484366;246;1439;-39
2022/02/18 03:56:07;;;;;;;;;;;21.80;33.90;;;;;;484305;246;1367;-39
2022/02/18 03:58:08;;;;;;;;;;;21.80;33.90;;;;;;484347;246;1369;-39
2022/02/18 04:00:10;;;;;;;;;;;21.80;33.90;;;;;;484433;246;1083;-39
2022/02/18 04:02:11;;;;;;;;;;;21.90;33.90;;;;;;484230;246;2027;-39
2022/02/18 04:04:12;;;;;;;;;;;21.80;33.80;;;;;;484494;246;1040;-39
2022/02/18 04:06:13;;;;;;;;;;;21.80;33.70;;;;;;484195;246;2187;-39
2022/02/18 04:08:15;;;;;;;;;;;21.80;33.70;;;;;;484478;246;1372;-39
2022/02/18 04:10:16;;;;;;;;;;;21.80;33.80;;;;;;484436;246;1053;-39
2022/02/18 04:12:17;;;;;;;;;;;21.80;33.80;;;;;;484043;246;1182;-39
2022/02/18 04:14:19;;;;;;;;;;;21.80;33.80;;;;;;484017;246;1072;-39
2022/02/18 04:16:20;;;;;;;;;;;21.80;33.90;;;;;;484180;246;1336;-39
2022/02/18 04:18:21;;;;;;;;;;;21.70;33.90;;;;;;484072;246;1274;-39
2022/02/18 04:20:23;;;;;;;;;;;21.70;33.90;;;;;;484479;246;1101;-39
2022/02/18 04:22:24;;;;;;;;;;;21.70;33.90;;;;;;484040;246;1266;-39
2022/02/18 04:24:25;;;;;;;;;;;21.80;33.90;;;;;;484442;246;1139;-39
2022/02/18 04:26:27;;;;;;;;;;;21.80;33.90;;;;;;484390;242;2200;-39
2022/02/18 04:28:28;;;;;;;;;;;21.80;33.90;;;;;;484232;246;1162;-39
2022/02/18 04:30:29;;;;;;;;;;;21.80;33.90;;;;;;484486;246;1070;-39
2022/02/18 04:32:30;;;;;;;;;;;21.80;33.90;;;;;;483979;246;1236;-39
2022/02/18 04:34:32;;;;;;;;;;;21.80;33.80;;;;;;484014;246;1056;-39
2022/02/18 04:36:33;;;;;;;;;;;21.80;33.80;;;;;;483960;246;1273;-39
2022/02/18 04:38:35;;;;;;;;;;;21.80;33.90;;;;;;484416;246;1471;-39
2022/02/18 04:40:36;;;;;;;;;;;21.80;33.80;;;;;;484411;246;2350;-39
2022/02/18 04:42:37;;;;;;;;;;;21.80;33.80;;;;;;484254;246;1053;-39
2022/02/18 04:44:38;;;;;;;;;;;21.80;33.80;;;;;;484238;246;2125;-39
2022/02/18 04:46:40;;;;;;;;;;;21.80;33.80;;;;;;484379;246;1214;-39
2022/02/18 04:48:41;;;;;;;;;;;21.80;33.80;;;;;;484001;246;1092;-39
2022/02/18 04:50:42;;;;;;;;;;;21.80;33.90;;;;;;484026;246;1905;-39
2022/02/18 04:52:44;;;;;;;;;;;21.70;33.90;;;;;;484046;246;1225;-39
2022/02/18 04:54:45;;;;;;;;;;;21.80;33.90;;;;;;483967;246;1305;-39
2022/02/18 04:56:46;;;;;;;;;;;21.80;33.80;;;;;;484416;245;1185;-39
2022/02/18 04:58:48;;;;;;;;;;;21.80;33.90;;;;;;484474;246;1005;-39
2022/02/18 05:00:49;;;;;;;;;;;21.80;33.90;;;;;;484018;246;1083;-39
2022/02/18 05:02:50;;;;;;;;;;;21.80;33.90;;;;;;484408;246;1107;-39
2022/02/18 05:04:52;;;;;;;;;;;21.80;34.00;;;;;;484203;246;2201;-39
2022/02/18 05:06:53;;;;;;;;;;;21.80;34.00;;;;;;484184;246;2155;-39
2022/02/18 05:08:54;;;;;;;;;;;21.70;34.00;;;;;;483920;246;1082;-39
2022/02/18 05:10:55;;;;;;;;;;;21.80;34.00;;;;;;484003;246;1068;-39
2022/02/18 05:12:57;;;;;;;;;;;21.80;33.90;;;;;;484285;246;1063;-39
2022/02/18 05:14:58;;;;;;;;;;;21.80;33.90;;;;;;484032;246;1078;-39
2022/02/18 05:16:59;;;;;;;;;;;21.80;33.90;;;;;;484289;246;1283;-39
2022/02/18 05:19:01;;;;;;;;;;;21.80;33.90;;;;;;483921;246;1091;-39
2022/02/18 05:21:02;;;;;;;;;;;21.90;33.90;;;;;;483782;246;1104;-39
2022/02/18 05:23:03;;;;;;;;;;;21.80;33.90;;;;;;483796;246;1188;-39
2022/02/18 05:25:05;;;;;;;;;;;21.70;33.90;;;;;;483926;246;2196;-39
2022/02/18 05:27:06;;;;;;;;;;;21.80;34.00;;;;;;484317;246;1122;-39
2022/02/18 05:29:07;;;;;;;;;;;21.80;33.90;;;;;;484355;246;1235;-39
2022/02/18 05:31:09;;;;;;;;;;;21.80;33.90;;;;;;483922;246;1136;-39
2022/02/18 05:33:12;;;;;;;;;;;21.80;33.90;;;;;;484227;246;1119;-39
2022/02/18 05:35:11;;;;;;;;;;;21.80;33.90;;;;;;484285;246;1946;-39
2022/02/18 05:37:13;;;;;;;;;;;21.80;33.90;;;;;;484178;246;1198;-39
2022/02/18 05:39:14;;;;;;;;;;;21.80;33.90;;;;;;484229;246;1069;-39
2022/02/18 05:41:16;;;;;;;;;;;21.80;33.90;;;;;;484231;246;1171;-39
2022/02/18 05:43:16;;;;;;;;;;;21.80;33.90;;;;;;483832;246;2548;-39
2022/02/18 05:45:18;;;;;;;;;;;21.80;33.90;;;;;;483838;246;2204;-39
2022/02/18 05:47:19;;;;;;;;;;;21.80;33.90;;;;;;483823;246;1366;-39
2022/02/18 05:49:21;;;;;;;;;;;21.80;33.90;;;;;;483913;246;1026;-39
2022/02/18 05:51:22;;;;;;;;;;;21.80;33.90;;;;;;483805;246;1570;-39
2022/02/18 05:53:23;;;;;;;;;;;21.80;33.90;;;;;;483947;246;1334;-39
2022/02/18 05:55:24;;;;;;;;;;;21.90;33.90;;;;;;484341;246;1022;-39
2022/02/18 05:57:26;;;;;;;;;;;21.80;33.90;;;;;;483871;246;1239;-39
2022/02/18 05:59:27;;;;;;;;;;;21.80;33.90;;;;;;483858;246;1112;-39
2022/02/18 06:01:28;;;;;;;;;;;21.80;33.90;;;;;;484096;246;1171;-39
2022/02/18 06:03:30;;;;;;;;;;;21.80;33.90;;;;;;484107;246;1082;-39
2022/02/18 06:05:31;;;;;;;;;;;21.80;33.90;;;;;;484067;246;2207;-39
2022/02/18 06:07:32;;;;;;;;;;;21.80;34.00;;;;;;483735;246;1211;-39
2022/02/18 06:09:34;;;;;;;;;;;21.80;33.80;;;;;;483842;246;1145;-39
2022/02/18 06:11:35;;;;;;;;;;;21.80;33.80;;;;;;484036;246;1377;-39
2022/02/18 06:13:36;;;;;;;;;;;21.80;33.90;;;;;;483938;246;1107;-39
2022/02/18 06:15:38;;;;;;;;;;;21.80;33.90;;;;;;483835;246;1084;-39
2022/02/18 06:17:39;;;;;;;;;;;21.90;33.90;;;;;;483751;246;1176;-39
2022/02/18 06:19:40;;;;;;;;;;;21.90;33.80;;;;;;484114;246;1059;-39
2022/02/18 06:21:42;;;;;;;;;;;21.90;33.90;;;;;;483890;242;1158;-39
2022/02/18 06:23:43;;;;;;;;;;;21.80;33.90;;;;;;483831;246;1200;-39
2022/02/18 06:25:44;;;;;;;;;;;21.80;33.80;;;;;;484136;246;2194;-39
2022/02/18 06:27:46;;;;;;;;;;;21.90;33.90;;;;;;484130;246;1201;-39
2022/02/18 06:29:49;;;;;;;;;;;21.90;33.80;;;;;;483780;246;1039;-39
2022/02/18 06:31:48;;;;;;;;;;;21.80;33.80;;;;;;483803;246;1774;-39
2022/02/18 06:33:50;;;;;;;;;;;21.80;33.90;;;;;;484182;246;1092;-39
2022/02/18 06:35:51;;;;;;;;;;;21.90;33.90;;;;;;483852;246;1053;-40
2022/02/18 06:37:52;;;;;;;;;;;21.80;33.90;;;;;;483835;246;1294;-39
2022/02/18 06:39:54;;;;;;;;;;;21.80;33.90;;;;;;483822;246;1046;-39
2022/02/18 06:41:55;;;;;;;;;;;21.80;33.90;;;;;;483737;246;1335;-39
2022/02/18 06:43:56;;;;;;;;;;;21.80;33.90;;;;;;483744;246;1202;-39
2022/02/18 06:45:58;;;;;;;;;;;21.90;34.00;;;;;;483711;246;2188;-39
2022/02/18 06:47:59;;;;;;;;;;;21.80;34.00;;;;;;483705;246;1068;-39
2022/02/18 06:50:00;;;;;;;;;;;21.80;33.90;;;;;;483900;246;1213;-39
2022/02/18 06:52:02;;;;;;;;;;;21.90;33.90;;;;;;483510;246;1153;-39
2022/02/18 06:54:03;;;;;;;;;;;21.80;33.90;;;;;;483720;246;1170;-39
2022/02/18 06:56:04;;;;;;;;;;;21.80;33.90;;;;;;483788;246;1157;-39
2022/02/18 06:58:05;;;;;;;;;;;21.80;34.00;;;;;;483811;246;1083;-39
2022/02/18 07:00:07;;;;;;;;;;;21.80;34.00;;;;;;483702;246;1140;-39
2022/02/18 07:02:08;;;;;;;;;;;21.80;34.00;;;;;;483719;246;1212;-39
2022/02/18 07:04:09;;;;;;;;;;;21.80;34.00;;;;;;483991;246;1044;-39
2022/02/18 07:06:11;;;;;;;;;;;21.80;34.00;;;;;;483988;246;2192;-39
2022/02/18 07:08:12;;;;;;;;;;;21.80;34.00;;;;;;483634;246;1246;-39
2022/02/18 07:10:14;;;;;;;;;;;21.80;33.90;;;;;;483663;246;1059;-39
2022/02/18 07:12:15;;;;;;;;;;;21.80;33.90;;;;;;483621;246;1197;-39
2022/02/18 07:14:16;;;;;;;;;;;21.80;33.90;;;;;;483731;246;1223;-39
2022/02/18 07:16:18;;;;;;;;;;;21.80;33.90;;;;;;483749;246;1401;-39
2022/02/18 07:18:19;;;;;;;;;;;21.90;33.90;;;;;;483796;246;1089;-39
2022/02/18 07:20:20;;;;;;;;;;;21.80;33.90;;;;;;483571;246;1062;-39
2022/02/18 07:22:22;;;;;;;;;;;21.80;33.90;;;;;;483526;246;1199;-39
2022/02/18 07:24:23;;;;;;;;;;;21.90;33.90;;;;;;483557;246;1239;-39
2022/02/18 07:26:24;;;;;;;;;;;21.80;33.90;;;;;;483653;242;2113;-39
2022/02/18 07:28:26;;;;;;;;;;;21.80;34.00;;;;;;483571;246;1086;-39
2022/02/18 07:30:27;;;;;;;;;;;21.80;34.00;;;;;;483660;246;1057;-39
2022/02/18 07:32:28;;;;;;;;;;;21.80;34.00;;;;;;483803;246;1354;-39
2022/02/18 07:34:30;;;;;;;;;;;21.80;34.00;;;;;;483867;246;1039;-39
2022/02/18 07:36:31;;;;;;;;;;;21.80;34.00;;;;;;483610;246;1105;-39
2022/02/18 07:38:32;;;;;;;;;;;21.80;33.90;;;;;;483854;246;1205;-39
2022/02/18 07:40:34;;;;;;;;;;;21.80;33.90;;;;;;483397;246;1222;-39
2022/02/18 07:42:35;;;;;;;;;;;21.90;34.00;;;;;;483245;246;1148;-39
2022/02/18 07:44:36;;;;;;;;;;;21.80;33.90;;;;;;483427;246;1166;-39
2022/02/18 07:46:37;;;;;;;;;;;21.80;33.90;;;;;;483336;246;2220;-39
2022/02/18 07:48:39;;;;;;;;;;;21.90;33.90;;;;;;483331;246;1102;-39
2022/02/18 07:50:40;;;;;;;;;;;21.80;33.90;;;;;;483313;246;1326;-39
2022/02/18 07:52:43;;;;;;;;;;;21.90;33.90;;;;;;483466;246;1226;-39
2022/02/18 07:54:43;;;;;;;;;;;21.90;33.80;;;;;;483384;246;2013;-39
2022/02/18 07:56:44;;;;;;;;;;;21.90;33.90;;;;;;483406;246;1158;-39
2022/02/18 07:58:45;;;;;;;;;;;21.90;33.90;;;;;;483324;246;1071;-39
2022/02/18 08:00:47;;;;;;;;;;;21.90;33.90;;;;;;483386;246;1120;-39
2022/02/18 08:02:49;;;;;;;;;;;21.90;33.90;;;;;;483315;246;1282;-39
2022/02/18 08:04:49;;;;;;;;;;;21.90;33.90;;;;;;483316;246;2085;-39
2022/02/18 08:06:51;;;;;;;;;;;22.00;34.00;;;;;;483384;246;2198;-39
2022/02/18 08:08:53;;;;;;;;;;;22.00;33.90;;;;;;483369;246;1134;-39
2022/02/18 08:10:53;;;;;;;;;;;22.00;33.90;;;;;;483424;246;2511;-39
2022/02/18 08:12:55;;;;;;;;;;;22.00;33.90;;;;;;483297;246;1177;-39
2022/02/18 08:14:56;;;;;;;;;;;22.00;33.90;;;;;;483422;246;1090;-39
2022/02/18 08:16:57;;;;;;;;;;;22.00;33.90;;;;;;483431;246;1167;-39
2022/02/18 08:18:59;;;;;;;;;;;22.00;33.90;;;;;;483441;246;1067;-39
2022/02/18 08:21:00;;;;;;;;;;;22.00;33.80;;;;;;483153;246;1280;-39
2022/02/18 08:23:01;;;;;;;;;;;22.00;33.80;;;;;;483368;246;1160;-39
2022/02/18 08:25:03;;;;;;;;;;;22.10;33.90;;;;;;483591;246;1277;-39
2022/02/18 08:27:06;;;;;;;;;;;22.00;33.90;;;;;;483303;246;2202;-39
2022/02/18 08:29:06;;;;;;;;;;;22.00;33.90;;;;;;483309;246;2376;-39
2022/02/18 08:31:07;;;;;;;;;;;22.00;33.90;;;;;;483396;246;1065;-39
2022/02/18 08:33:08;;;;;;;;;;;22.10;34.00;;;;;;483339;246;1084;-39
2022/02/18 08:35:09;;;;;;;;;;;22.00;33.90;;;;;;483574;246;1141;-39
2022/02/18 08:37:11;;;;;;;;;;;22.00;34.00;;;;;;483301;246;1226;-39
2022/02/18 08:39:12;;;;;;;;;;;22.00;34.00;;;;;;483644;246;1176;-39
2022/02/18 08:41:13;;;;;;;;;;;22.10;34.00;;;;;;483400;246;1107;-39
2022/02/18 08:43:15;;;;;;;;;;;22.00;34.00;;;;;;483429;246;1152;-39
2022/02/18 08:45:16;;;;;;;;;;;22.10;34.00;;;;;;483437;246;1245;-39
2022/02/18 08:47:18;;;;;;;;;;;22.10;34.00;;;;;;483355;246;2245;-39
2022/02/18 08:49:19;;;;;;;;;;;22.10;34.00;;;;;;483619;246;1074;-39
2022/02/18 08:51:20;;;;;;;;;;;22.10;33.90;;;;;;483335;246;1228;-39
2022/02/18 08:53:21;;;;;;;;;;;22.10;34.00;;;;;;483290;246;1053;-39
2022/02/18 08:55:24;;;;;;;;;;;22.10;34.00;;;;;;483444;246;1544;-39
2022/02/18 08:57:24;;;;;;;;;;;22.10;34.00;;;;;;483355;246;2237;-39
2022/02/18 08:59:25;;;;;;;;;;;22.10;34.00;;;;;;483563;246;1071;-39
2022/02/18 09:01:27;;;;;;;;;;;22.10;34.10;;;;;;483389;246;1257;-39
2022/02/18 09:03:29;;;;;;;;;;;22.10;34.10;;;;;;483568;246;1130;-39
2022/02/18 09:05:30;;;;;;;;;;;22.10;34.00;;;;;;483517;246;1099;-39
2022/02/18 09:07:31;;;;;;;;;;;22.10;34.00;;;;;;483399;246;2208;-39
2022/02/18 09:09:33;;;;;;;;;;;22.10;34.00;;;;;;483448;246;1209;-39
2022/02/18 09:11:34;;;;;;;;;;;22.10;34.00;;;;;;483172;246;1440;-39
2022/02/18 09:13:35;;;;;;;;;;;22.10;34.00;;;;;;483137;246;1086;-39
2022/02/18 09:15:37;;;;;;;;;;;22.10;34.00;;;;;;483458;246;1072;-39
2022/02/18 09:17:38;;;;;;;;;;;22.10;33.90;;;;;;483212;246;1196;-39
2022/02/18 09:19:39;;;;;;;;;;;22.20;34.00;;;;;;483696;246;1178;-39
2022/02/18 09:21:41;;;;;;;;;;;22.20;34.00;;;;;;483319;246;1337;-39
2022/02/18 09:23:42;;;;;;;;;;;22.20;34.00;;;;;;483347;246;1061;-39
2022/02/18 09:25:43;;;;;;;;;;;22.20;34.00;;;;;;483398;246;1198;-39
2022/02/18 09:27:46;;;;;;;;;;;22.20;33.90;;;;;;483532;246;2200;-39
2022/02/18 09:29:46;;;;;;;;;;;22.20;33.90;;;;;;483578;246;2228;-39
2022/02/18 09:31:47;;;;;;;;;;;22.20;33.90;;;;;;483134;246;1206;-39
2022/02/18 09:33:48;;;;;;;;;;;22.20;34.00;;;;;;483297;246;1113;-39
2022/02/18 09:35:50;;;;;;;;;;;22.20;33.90;;;;;;483319;246;1062;-39
2022/02/18 09:37:51;;;;;;;;;;;22.20;34.00;;;;;;483483;246;1086;-40
2022/02/18 09:39:52;;;;;;;;;;;22.20;33.90;;;;;;483347;246;1188;-39
2022/02/18 09:41:54;;;;;;;;;;;22.20;33.90;;;;;;483295;246;1185;-39
2022/02/18 09:43:56;;;;;;;;;;;22.20;33.90;;;;;;482543;246;1073;-39
2022/02/18 09:45:57;;;;;;;;;;;22.20;33.90;;;;;;483357;246;1379;-39
2022/02/18 09:47:58;;;;;;;;;;;22.20;33.90;;;;;;483405;246;2222;-39
2022/02/18 09:50:00;;;;;;;;;;;22.20;34.00;;;;;;483437;246;1051;-39
2022/02/18 09:52:01;;;;;;;;;;;22.20;33.90;;;;;;483229;246;1167;-39
2022/02/18 09:54:02;;;;;;;;;;;22.30;33.90;;;;;;483289;246;1203;-39
2022/02/18 09:56:04;;;;;;;;;;;22.30;33.90;;;;;;483379;246;1279;-39
2022/02/18 09:58:05;;;;;;;;;;;22.30;33.90;;;;;;483176;246;1357;-39
2022/02/18 10:00:06;;;;;;;;;;;22.20;33.90;;;;;;483379;246;1083;-39
2022/02/18 10:02:08;;;;;;;;;;;22.20;34.00;;;;;;483175;246;1036;-39
2022/02/18 10:04:09;;;;;;;;;;;22.20;34.00;;;;;;483323;246;1165;-39
2022/02/18 10:06:11;;;;;;;;;;;22.20;34.00;;;;;;483231;242;1523;-39
2022/02/18 10:08:13;;;;;;;;;;;22.20;34.10;;;;;;483211;246;2204;-39
2022/02/18 10:10:13;;;;;;;;;;;22.20;34.10;;;;;;483244;246;2011;-39
2022/02/18 10:12:15;;;;;;;;;;;22.20;34.10;;;;;;483445;246;1065;-39
2022/02/18 10:14:16;;;;;;;;;;;22.20;34.20;;;;;;483520;246;1148;-39
2022/02/18 10:16:17;;;;;;;;;;;22.20;34.10;;;;;;483272;243;1226;-39
2022/02/18 10:18:19;;;;;;;;;;;22.20;34.10;;;;;;483188;246;1136;-39
2022/02/18 10:20:20;;;;;;;;;;;22.20;34.10;;;;;;483262;246;1090;-39
2022/02/18 10:22:21;;;;;;;;;;;22.20;34.10;;;;;;483403;246;1127;-39
2022/02/18 10:24:22;;;;;;;;;;;22.20;34.10;;;;;;483513;246;969;-39
2022/02/18 10:26:24;;;;;;;;;;;22.20;34.20;;;;;;483060;246;1383;-39
2022/02/18 10:28:25;;;;;;;;;;;22.20;34.10;;;;;;483331;246;2208;-39
2022/02/18 10:30:28;;;;;;;;;;;22.20;34.20;;;;;;483239;243;1166;-39
2022/02/18 10:32:28;;;;;;;;;;;22.20;34.20;;;;;;483297;246;1542;-39
2022/02/18 10:34:29;;;;;;;;;;;22.20;34.20;;;;;;483514;246;1047;-39
2022/02/18 10:36:30;;;;;;;;;;;22.20;34.10;;;;;;483378;246;1297;-39
2022/02/18 10:38:32;;;;;;;;;;;22.30;34.10;;;;;;483593;246;1068;-39
2022/02/18 10:40:33;;;;;;;;;;;22.30;34.10;;;;;;483485;246;1307;-39
2022/02/18 10:42:34;;;;;;;;;;;22.20;34.00;;;;;;483474;246;1486;-39
2022/02/18 10:44:36;;;;;;;;;;;22.20;34.10;;;;;;483398;246;1123;-39
2022/02/18 10:46:37;;;;;;;;;;;22.20;34.10;;;;;;483446;246;1355;-39
2022/02/18 10:48:38;;;;;;;;;;;22.30;34.10;;;;;;483464;246;2180;-40
2022/02/18 10:50:40;;;;;;;;;;;22.30;34.00;;;;;;483441;246;1377;-39
2022/02/18 10:52:41;;;;;;;;;;;22.30;34.10;;;;;;483407;246;1024;-39
2022/02/18 10:54:45;;;;;;;;;;;22.20;34.10;;;;;;483510;246;1598;-39
2022/02/18 10:56:44;;;;;;;;;;;22.20;34.20;;;;;;483310;246;1463;-39
2022/02/18 10:58:45;;;;;;;;;;;22.20;34.10;;;;;;483679;246;1141;-39
2022/02/18 11:00:46;;;;;;;;;;;22.20;34.20;;;;;;483456;246;1439;-39
2022/02/18 11:02:50;;;;;;;;;;;22.30;34.20;;;;;;483416;246;1234;-39
2022/02/18 11:04:49;;;;;;;;;;;22.30;34.20;;;;;;483395;246;2215;-39
2022/02/18 11:06:50;;;;;;;;;;;22.30;34.10;;;;;;483097;246;2212;-39
2022/02/18 11:08:52;;;;;;;;;;;22.30;34.10;;;;;;483516;246;1058;-39
2022/02/18 11:10:53;;;;;;;;;;;22.30;34.00;;;;;;483661;246;1481;-39
2022/02/18 11:12:54;;;;;;;;;;;22.30;34.10;;;;;;483638;246;1032;-39
2022/02/18 11:14:56;;;;;;;;;;;22.30;34.10;;;;;;483438;246;1289;-39
2022/02/18 11:16:57;;;;;;;;;;;22.20;34.10;;;;;;483445;246;1093;-39
2022/02/18 11:18:59;;;;;;;;;;;22.30;34.10;;;;;;483423;246;1338;-39
2022/02/18 11:20:59;;;;;;;;;;;22.30;34.10;;;;;;483465;246;2207;-39
2022/02/18 11:23:01;;;;;;;;;;;22.30;34.10;;;;;;483374;246;1192;-39
2022/02/18 11:25:02;;;;;;;;;;;22.20;34.10;;;;;;483402;246;1096;-39
2022/02/18 11:27:04;;;;;;;;;;;22.30;34.10;;;;;;483402;246;2196;-39
2022/02/18 11:29:07;;;;;;;;;;;22.30;34.10;;;;;;483423;246;2049;-39
2022/02/18 11:31:06;;;;;;;;;;;22.30;34.00;;;;;;483420;246;2097;-39
2022/02/18 11:33:07;;;;;;;;;;;22.30;34.10;;;;;;483609;246;1100;-39
2022/02/18 11:35:09;;;;;;;;;;;22.30;34.10;;;;;;483600;246;1047;-40
2022/02/18 11:37:10;;;;;;;;;;;22.30;34.00;;;;;;483308;246;1355;-39
2022/02/18 11:39:11;;;;;;;;;;;22.30;34.00;;;;;;483599;246;1089;-39
2022/02/18 11:41:13;;;;;;;;;;;22.20;34.10;;;;;;483195;246;1184;-39
2022/02/18 11:43:14;;;;;;;;;;;22.30;34.10;;;;;;483287;246;1320;-39
2022/02/18 11:45:15;;;;;;;;;;;22.30;34.10;;;;;;483309;246;1068;-39
2022/02/18 11:47:17;;;;;;;;;;;22.30;34.00;;;;;;483266;246;2129;-39
2022/02/18 11:49:18;;;;;;;;;;;22.30;34.00;;;;;;483367;246;1071;-39
2022/02/18 11:51:19;;;;;;;;;;;22.30;34.10;;;;;;483693;246;1426;-39
2022/02/18 11:53:21;;;;;;;;;;;22.30;34.10;;;;;;483675;246;1161;-39
2022/02/18 11:55:22;;;;;;;;;;;22.30;34.10;;;;;;483576;246;1401;-39
2022/02/18 11:57:29;;;;;;;;;;;22.20;34.00;;;;;;483213;246;1264;-39